createdAt,value
2023-04-02T00:01:23.953Z,10.01
2023-04-02T00:03:54.004Z,10.01
2023-04-02T00:06:33.138Z,10.01
2023-04-02T00:09:04.747Z,10.03
2023-04-02T00:11:37.594Z,10.03
2023-04-02T00:14:13.323Z,10.03
2023-04-02T00:16:40.683Z,10.02
2023-04-02T00:19:15.542Z,10.00
2023-04-02T00:21:45.454Z,9.97
2023-04-02T00:24:17.942Z,9.96
2023-04-02T00:26:48.041Z,9.95
2023-04-02T00:29:16.451Z,9.95
2023-04-02T00:31:46.553Z,9.98
2023-04-02T00:34:26.217Z,9.99
2023-04-02T00:36:53.626Z,10.00
2023-04-02T00:39:33.007Z,10.00
2023-04-02T00:42:07.577Z,9.97
2023-04-02T00:44:38.691Z,9.96
2023-04-02T00:47:24.490Z,9.96
2023-04-02T00:49:59.996Z,9.97
2023-04-02T00:52:31.143Z,9.98
2023-04-02T00:55:05.226Z,9.98
2023-04-02T00:57:33.713Z,10.01
2023-04-02T01:00:21.744Z,9.99
2023-04-02T01:03:20.352Z,9.99
2023-04-02T01:05:50.464Z,10.00
2023-04-02T01:08:23.118Z,10.03
2023-04-02T01:11:20.815Z,10.05
2023-04-02T01:14:04.056Z,10.07
2023-04-02T01:16:31.023Z,10.06
2023-04-02T01:19:06.216Z,10.05
2023-04-02T01:21:34.040Z,10.04
2023-04-02T01:24:05.358Z,10.02
2023-04-02T01:26:48.139Z,10.03
2023-04-02T01:29:30.660Z,10.04
2023-04-02T01:32:02.118Z,10.04
2023-04-02T01:34:31.014Z,10.01
2023-04-02T01:37:13.303Z,9.99
2023-04-02T01:40:11.384Z,9.97
2023-04-02T01:43:08.951Z,9.97
2023-04-02T01:45:36.903Z,9.96
2023-04-02T01:48:24.728Z,9.93
2023-04-02T01:50:55.084Z,9.87
2023-04-02T01:53:24.675Z,9.85
2023-04-02T01:55:55.935Z,9.85
2023-04-02T01:58:27.251Z,9.84
2023-04-02T02:01:02.349Z,9.84
2023-04-02T02:03:30.476Z,9.84
2023-04-02T02:05:58.506Z,9.82
2023-04-02T02:08:25.590Z,9.80
2023-04-02T02:10:52.386Z,9.77
2023-04-02T02:13:19.216Z,9.75
2023-04-02T02:15:46.674Z,9.73
2023-04-02T02:18:14.291Z,9.74
2023-04-02T02:20:42.057Z,9.75
2023-04-02T02:23:13.076Z,9.76
2023-04-02T02:25:41.307Z,9.76
2023-04-02T02:28:15.167Z,9.73
2023-04-02T02:30:49.262Z,9.72
2023-04-02T02:33:16.479Z,9.69
2023-04-02T02:35:52.657Z,9.67
2023-04-02T02:38:35.569Z,9.65
2023-04-02T02:41:16.588Z,9.62
2023-04-02T02:43:53.321Z,9.63
2023-04-02T02:46:25.448Z,9.64
2023-04-02T02:48:55.885Z,9.62
2023-04-02T02:51:44.210Z,9.61
2023-04-02T02:54:15.421Z,9.62
2023-04-02T02:56:48.400Z,9.63
2023-04-02T02:59:17.340Z,9.63
2023-04-02T03:01:45.851Z,9.62
2023-04-02T03:04:14.750Z,9.63
2023-04-02T03:06:41.723Z,9.62
2023-04-02T03:09:39.869Z,9.61
2023-04-02T03:12:37.410Z,9.60
2023-04-02T03:15:27.476Z,9.60
2023-04-02T03:18:06.298Z,9.59
2023-04-02T03:20:51.727Z,9.60
2023-04-02T03:23:37.435Z,9.59
2023-04-02T03:26:12.437Z,9.56
2023-04-02T03:28:46.522Z,9.53
2023-04-02T03:31:24.134Z,9.53
2023-04-02T03:33:58.530Z,9.53
2023-04-02T03:36:34.823Z,9.54
2023-04-02T03:39:06.550Z,9.54
2023-04-02T03:41:51.032Z,9.54
2023-04-02T03:44:30.521Z,9.51
2023-04-02T03:47:06.105Z,9.48
2023-04-02T03:49:48.103Z,9.47
2023-04-02T03:52:26.665Z,9.47
2023-04-02T03:54:57.309Z,9.48
2023-04-02T03:57:36.505Z,9.50
2023-04-02T04:00:05.158Z,9.50
2023-04-02T04:02:49.784Z,9.47
2023-04-02T04:05:26.249Z,9.46
2023-04-02T04:07:59.959Z,9.45
2023-04-02T04:10:29.373Z,9.46
2023-04-02T04:13:03.106Z,9.46
2023-04-02T04:15:35.093Z,9.47
2023-04-02T04:18:19.615Z,9.46
2023-04-02T04:21:01.288Z,9.43
2023-04-02T04:23:37.263Z,9.38
2023-04-02T04:26:31.133Z,9.21
2023-04-02T04:29:15.625Z,8.90
2023-04-02T04:31:49.525Z,8.59
2023-04-02T04:34:23.114Z,8.37
2023-04-02T04:36:57.515Z,8.25
2023-04-02T04:39:40.091Z,8.16
2023-04-02T04:42:11.938Z,8.10
2023-04-02T04:44:46.565Z,8.05
2023-04-02T04:47:25.012Z,7.98
2023-04-02T04:49:56.588Z,7.96
2023-04-02T04:52:33.764Z,7.92
2023-04-02T04:55:00.852Z,7.90
2023-04-02T04:57:34.095Z,7.90
2023-04-02T05:00:13.061Z,7.93
2023-04-02T05:02:49.530Z,7.90
2023-04-02T05:05:21.914Z,7.90
2023-04-02T05:07:57.877Z,7.88
2023-04-02T05:10:48.134Z,7.88
2023-04-02T05:13:29.480Z,7.89
2023-04-02T05:16:18.759Z,7.90
2023-04-02T05:18:52.619Z,7.95
2023-04-02T05:21:38.010Z,8.06
2023-04-02T05:24:20.927Z,8.08
2023-04-02T05:26:51.963Z,8.05
2023-04-02T05:29:25.360Z,8.01
2023-04-02T05:32:01.556Z,7.98
2023-04-02T05:34:36.547Z,7.96
2023-04-02T05:37:09.255Z,7.96
2023-04-02T05:39:36.599Z,8.04
2023-04-02T05:42:08.427Z,8.15
2023-04-02T05:45:09.120Z,8.18
2023-04-02T05:47:41.221Z,8.26
2023-04-02T05:50:26.114Z,8.29
2023-04-02T05:53:06.738Z,8.34
2023-04-02T05:55:42.207Z,8.40
2023-04-02T05:58:38.647Z,8.50
2023-04-02T06:01:21.366Z,8.63
2023-04-02T06:03:57.403Z,8.71
2023-04-02T06:06:33.586Z,8.77
2023-04-02T06:09:09.991Z,8.80
2023-04-02T06:11:45.734Z,8.82
2023-04-02T06:14:17.989Z,8.83
2023-04-02T06:16:46.769Z,8.84
2023-04-02T06:19:21.714Z,8.81
2023-04-02T06:21:52.438Z,8.80
2023-04-02T06:24:26.330Z,8.75
2023-04-02T06:27:00.794Z,8.66
2023-04-02T06:29:40.117Z,8.64
2023-04-02T06:32:12.660Z,8.59
2023-04-02T06:34:43.097Z,8.50
2023-04-02T06:37:22.446Z,8.42
2023-04-02T06:39:53.575Z,8.36
2023-04-02T06:42:26.605Z,8.34
2023-04-02T06:45:23.979Z,8.26
2023-04-02T06:48:17.606Z,8.11
2023-04-02T06:50:53.065Z,8.01
2023-04-02T06:53:23.494Z,7.92
2023-04-02T06:55:58.836Z,7.83
2023-04-02T06:58:29.367Z,7.74
2023-04-02T07:00:57.111Z,7.64
2023-04-02T07:03:34.139Z,7.54
2023-04-02T07:06:15.503Z,7.48
2023-04-02T07:08:44.019Z,7.43
2023-04-02T07:11:18.708Z,7.39
2023-04-02T07:13:49.449Z,7.37
2023-04-02T07:16:20.780Z,7.33
2023-04-02T07:18:49.021Z,7.27
2023-04-02T07:21:16.518Z,7.22
2023-04-02T07:23:44.880Z,7.16
2023-04-02T07:26:17.687Z,7.10
2023-04-02T07:28:45.064Z,7.02
2023-04-02T07:31:20.374Z,6.98
2023-04-02T07:33:47.971Z,6.93
2023-04-02T07:36:17.820Z,6.89
2023-04-02T07:38:45.010Z,6.87
2023-04-02T07:41:12.068Z,6.82
2023-04-02T07:43:40.001Z,6.77
2023-04-02T07:46:07.953Z,6.74
2023-04-02T07:48:34.945Z,6.69
2023-04-02T07:51:03.444Z,6.64
2023-04-02T07:53:34.560Z,6.60
2023-04-02T07:56:03.220Z,6.58
2023-04-02T07:58:31.515Z,6.55
2023-04-02T08:00:59.520Z,6.53
2023-04-02T08:03:26.929Z,6.54
2023-04-02T08:05:55.971Z,6.55
2023-04-02T08:08:24.319Z,6.57
2023-04-02T08:10:51.485Z,6.57
2023-04-02T08:13:18.770Z,6.57
2023-04-02T08:15:45.769Z,6.51
2023-04-02T08:18:12.595Z,6.48
2023-04-02T08:20:39.704Z,6.46
2023-04-02T08:23:13.742Z,6.46
2023-04-02T08:25:40.501Z,6.41
2023-04-02T08:28:07.490Z,6.42
2023-04-02T08:30:34.305Z,6.44
2023-04-02T08:33:01.595Z,6.46
2023-04-02T08:35:28.378Z,6.47
2023-04-02T08:37:55.526Z,6.48
2023-04-02T08:40:32.259Z,6.48
2023-04-02T08:43:15.806Z,6.48
2023-04-02T08:46:01.785Z,6.49
2023-04-02T08:48:32.708Z,6.50
2023-04-02T08:51:01.976Z,6.50
2023-04-02T08:53:33.848Z,6.50
2023-04-02T08:56:10.652Z,6.48
2023-04-02T08:58:47.026Z,6.51
2023-04-02T09:01:31.710Z,6.52
2023-04-02T09:03:59.088Z,6.52
2023-04-02T09:06:27.950Z,6.51
2023-04-02T09:08:57.005Z,6.49
2023-04-02T09:11:33.074Z,6.44
2023-04-02T09:14:03.455Z,6.41
2023-04-02T09:16:41.255Z,6.38
2023-04-02T09:19:17.196Z,6.33
2023-04-02T09:21:53.031Z,6.26
2023-04-02T09:24:19.799Z,6.17
2023-04-02T09:26:46.946Z,6.14
2023-04-02T09:29:14.123Z,6.12
2023-04-02T09:31:44.777Z,6.11
2023-04-02T09:34:32.603Z,6.12
2023-04-02T09:37:09.681Z,6.15
2023-04-02T09:39:36.491Z,6.18
2023-04-02T09:42:08.547Z,6.21
2023-04-02T09:44:35.661Z,6.23
2023-04-02T09:47:06.109Z,6.24
2023-04-02T09:49:36.224Z,6.27
2023-04-02T09:52:18.461Z,6.28
2023-04-02T09:54:46.006Z,6.31
2023-04-02T09:57:25.305Z,6.31
2023-04-02T10:00:32.096Z,6.32
2023-04-02T10:03:04.575Z,6.34
2023-04-02T10:08:18.087Z,6.41
2023-04-02T10:10:50.086Z,6.44
2023-04-02T10:13:20.137Z,6.44
2023-04-02T10:16:03.828Z,6.43
2023-04-02T10:18:40.250Z,6.43
2023-04-02T10:21:10.474Z,6.46
2023-04-02T10:23:37.200Z,6.46
2023-04-02T10:26:20.439Z,6.48
2023-04-02T10:28:59.395Z,6.47
2023-04-02T10:31:34.235Z,6.47
2023-04-02T10:34:07.430Z,6.49
2023-04-02T10:36:52.663Z,6.46
2023-04-02T10:39:39.450Z,6.43
2023-04-02T10:42:22.945Z,6.40
2023-04-02T10:45:17.296Z,6.34
2023-04-02T10:47:53.803Z,6.32
2023-04-02T10:50:45.792Z,6.30
2023-04-02T10:53:27.091Z,6.26
2023-04-02T10:56:03.456Z,6.26
2023-04-02T10:58:34.520Z,6.22
2023-04-02T11:01:08.112Z,6.20
2023-04-02T11:03:40.363Z,6.16
2023-04-02T11:06:19.006Z,6.16
2023-04-02T11:08:50.657Z,6.13
2023-04-02T11:11:22.723Z,6.10
2023-04-02T11:13:57.204Z,6.14
2023-04-02T11:16:24.817Z,6.22
2023-04-02T11:19:22.371Z,6.30
2023-04-02T11:21:59.305Z,6.36
2023-04-02T11:24:33.671Z,6.39
2023-04-02T11:27:11.310Z,6.43
2023-04-02T11:29:41.100Z,6.43
2023-04-02T11:32:25.431Z,6.41
2023-04-02T11:35:05.245Z,6.40
2023-04-02T11:37:33.809Z,6.47
2023-04-02T11:40:01.803Z,6.52
2023-04-02T11:42:29.804Z,6.53
2023-04-02T11:45:01.140Z,6.52
2023-04-02T11:47:30.017Z,6.52
2023-04-02T11:50:01.628Z,6.51
2023-04-02T11:52:30.722Z,6.50
2023-04-02T11:55:01.793Z,6.47
2023-04-02T11:57:51.144Z,6.44
2023-04-02T12:00:42.207Z,6.42
2023-04-02T12:03:30.170Z,6.46
2023-04-02T12:06:10.733Z,6.43
2023-04-02T12:08:58.311Z,6.45
2023-04-02T12:11:36.624Z,6.44
2023-04-02T12:14:23.104Z,6.44
2023-04-02T12:16:50.059Z,6.40
2023-04-02T12:19:17.129Z,6.40
2023-04-02T12:21:47.517Z,6.47
2023-04-02T12:24:21.527Z,6.58
2023-04-02T12:26:48.426Z,6.67
2023-04-02T12:29:30.930Z,6.74
2023-04-02T12:31:59.873Z,6.75
2023-04-02T12:34:29.513Z,6.74
2023-04-02T12:36:59.737Z,6.78
2023-04-02T12:39:28.505Z,6.79
2023-04-02T12:41:57.075Z,6.80
2023-04-02T12:44:27.450Z,6.80
2023-04-02T12:46:55.482Z,6.75
2023-04-02T12:49:42.779Z,6.71
2023-04-02T12:52:13.347Z,6.69
2023-04-02T12:54:48.724Z,6.64
2023-04-02T12:57:32.822Z,6.59
2023-04-02T13:00:25.101Z,6.53
2023-04-02T13:02:59.385Z,6.48
2023-04-02T13:05:38.104Z,6.39
2023-04-02T13:08:06.062Z,6.35
2023-04-02T13:10:33.192Z,6.44
2023-04-02T13:13:03.213Z,6.54
2023-04-02T13:15:33.144Z,6.61
2023-04-02T13:18:23.236Z,6.63
2023-04-02T13:20:59.537Z,6.65
2023-04-02T13:23:27.389Z,6.61
2023-04-02T13:25:54.991Z,6.51
2023-04-02T13:28:21.862Z,6.46
2023-04-02T13:30:48.921Z,6.45
2023-04-02T13:33:16.233Z,6.39
2023-04-02T13:35:44.535Z,6.33
2023-04-02T13:38:11.369Z,6.30
2023-04-02T13:40:39.175Z,6.28
2023-04-02T13:43:07.440Z,6.27
2023-04-02T13:45:38.071Z,6.27
2023-04-02T13:48:05.883Z,6.25
2023-04-02T13:50:35.122Z,6.19
2023-04-02T13:53:10.376Z,6.10
2023-04-02T13:55:40.840Z,6.03
2023-04-02T13:58:08.425Z,6.01
2023-04-02T14:00:37.886Z,6.06
2023-04-02T14:03:18.601Z,6.08
2023-04-02T14:05:49.856Z,6.10
2023-04-02T14:08:46.940Z,6.06
2023-04-02T14:11:18.898Z,5.93
2023-04-02T14:13:57.847Z,5.86
2023-04-02T14:16:43.132Z,5.83
2023-04-02T14:19:27.877Z,5.80
2023-04-02T14:22:04.917Z,5.79
2023-04-02T14:24:47.040Z,5.79
2023-04-02T14:27:41.806Z,5.80
2023-04-02T14:30:17.136Z,5.81
2023-04-02T14:33:01.473Z,5.83
2023-04-02T14:35:31.548Z,5.85
2023-04-02T14:38:22.104Z,5.85
2023-04-02T14:40:54.349Z,5.84
2023-04-02T14:43:40.350Z,5.84
2023-04-02T14:46:10.366Z,5.85
2023-04-02T14:48:47.635Z,5.86
2023-04-02T14:51:26.418Z,5.85
2023-04-02T14:54:03.768Z,5.85
2023-04-02T14:56:36.550Z,5.82
2023-04-02T14:59:23.988Z,5.74
2023-04-02T15:01:57.258Z,5.66
2023-04-02T15:04:31.236Z,5.62
2023-04-02T15:07:05.028Z,5.62
2023-04-02T15:09:38.457Z,5.64
2023-04-02T15:12:14.414Z,5.64
2023-04-02T15:14:47.762Z,5.62
2023-04-02T15:17:14.812Z,5.61
2023-04-02T15:19:41.617Z,5.60
2023-04-02T15:22:10.393Z,5.63
2023-04-02T15:24:44.115Z,5.65
2023-04-02T15:27:27.094Z,5.67
2023-04-02T15:30:07.914Z,5.67
2023-04-02T15:32:35.068Z,5.67
2023-04-02T15:35:12.377Z,5.64
2023-04-02T15:37:50.659Z,5.62
2023-04-02T15:40:34.142Z,5.57
2023-04-02T15:43:26.309Z,5.54
2023-04-02T15:46:16.082Z,5.53
2023-04-02T15:48:52.134Z,5.54
2023-04-02T15:51:35.302Z,5.55
2023-04-02T15:54:27.018Z,5.53
2023-04-02T15:57:10.035Z,5.53
2023-04-02T15:59:51.617Z,5.53
2023-04-02T16:02:41.666Z,5.54
2023-04-02T16:05:23.957Z,5.54
2023-04-02T16:08:07.151Z,5.51
2023-04-02T16:10:42.089Z,5.48
2023-04-02T16:13:40.289Z,5.43
2023-04-02T16:16:15.285Z,5.39
2023-04-02T16:19:02.720Z,5.40
2023-04-02T16:21:34.986Z,5.37
2023-04-02T16:24:01.939Z,5.35
2023-04-02T16:27:00.198Z,5.33
2023-04-02T16:29:53.369Z,5.28
2023-04-02T16:32:44.647Z,5.24
2023-04-02T16:35:43.018Z,5.21
2023-04-02T16:38:14.010Z,5.19
2023-04-02T16:41:04.757Z,5.17
2023-04-02T16:43:56.025Z,5.16
2023-04-02T16:46:35.900Z,5.14
2023-04-02T16:49:20.932Z,5.07
2023-04-02T16:51:56.979Z,5.02
2023-04-02T16:54:24.887Z,5.01
2023-04-02T16:57:15.919Z,4.98
2023-04-02T16:59:57.602Z,4.96
2023-04-02T17:02:33.174Z,4.92
2023-04-02T17:05:32.692Z,4.91
2023-04-02T17:08:14.909Z,4.86
2023-04-02T17:11:05.944Z,4.82
2023-04-02T17:13:42.282Z,4.78
2023-04-02T17:16:18.466Z,4.74
2023-04-02T17:18:48.013Z,4.71
2023-04-02T17:21:19.035Z,4.68
2023-04-02T17:24:06.454Z,4.65
2023-04-02T17:26:37.462Z,4.62
2023-04-02T17:29:09.154Z,4.62
2023-04-02T17:31:38.035Z,4.63
2023-04-02T17:34:15.024Z,4.63
2023-04-02T17:37:00.850Z,4.63
2023-04-02T17:39:52.747Z,4.59
2023-04-02T17:42:49.960Z,4.56
2023-04-02T17:45:28.628Z,4.54
2023-04-02T17:48:06.274Z,4.54
2023-04-02T17:50:40.444Z,4.55
2023-04-02T17:53:22.700Z,4.55
2023-04-02T17:56:06.955Z,4.54
2023-04-02T17:58:52.504Z,4.51
2023-04-02T18:01:28.864Z,4.50
2023-04-02T18:04:12.597Z,4.49
2023-04-02T18:06:39.533Z,4.51
2023-04-02T18:09:27.497Z,4.50
2023-04-02T18:12:09.852Z,4.51
2023-04-02T18:14:53.276Z,4.49
2023-04-02T18:17:46.359Z,4.46
2023-04-02T18:20:28.779Z,4.45
2023-04-02T18:23:10.781Z,4.47
2023-04-02T18:25:42.870Z,4.48
2023-04-02T18:28:23.563Z,4.46
2023-04-02T18:30:59.048Z,4.45
2023-04-02T18:33:39.526Z,4.44
2023-04-02T18:36:11.474Z,4.41
2023-04-02T18:38:46.406Z,4.41
2023-04-02T18:41:15.351Z,4.44
2023-04-02T18:43:57.613Z,4.44
2023-04-02T18:46:24.476Z,4.46
2023-04-02T18:49:14.121Z,4.46
2023-04-02T18:51:41.711Z,4.44
2023-04-02T18:54:09.680Z,4.40
2023-04-02T18:56:38.968Z,4.34
2023-04-02T18:59:06.957Z,4.31
2023-04-02T19:01:39.224Z,4.32
2023-04-02T19:04:09.816Z,4.35
2023-04-02T19:06:41.947Z,4.38
2023-04-02T19:09:24.307Z,4.39
2023-04-02T19:11:53.104Z,4.38
2023-04-02T19:14:23.335Z,4.37
2023-04-02T19:17:21.417Z,4.40
2023-04-02T19:19:55.730Z,4.38
2023-04-02T19:22:37.398Z,4.40
2023-04-02T19:25:04.176Z,4.39
2023-04-02T19:27:39.273Z,4.37
2023-04-02T19:30:24.664Z,4.36
2023-04-02T19:32:51.388Z,4.36
2023-04-02T19:35:34.952Z,4.39
2023-04-02T19:38:25.046Z,4.40
2023-04-02T19:41:07.337Z,4.42
2023-04-02T19:43:34.142Z,4.41
2023-04-02T19:46:02.726Z,4.41
2023-04-02T19:48:51.586Z,4.42
2023-04-02T19:51:18.385Z,4.40
2023-04-02T19:53:45.104Z,4.39
2023-04-02T19:56:11.901Z,4.38
2023-04-02T19:58:38.659Z,4.34
2023-04-02T20:01:05.647Z,4.33
2023-04-02T20:03:32.753Z,4.35
2023-04-02T20:06:00.136Z,4.37
2023-04-02T20:08:27.783Z,4.39
2023-04-02T20:10:55.833Z,4.40
2023-04-02T20:13:22.626Z,4.37
2023-04-02T20:15:51.357Z,4.35
2023-04-02T20:18:20.267Z,4.37
2023-04-02T20:20:48.805Z,4.37
2023-04-02T20:23:16.926Z,4.39
2023-04-02T20:25:52.863Z,4.37
2023-04-02T20:28:21.520Z,4.35
2023-04-02T20:30:50.263Z,4.34
2023-04-02T20:33:19.471Z,4.36
2023-04-02T20:35:47.242Z,4.37
2023-04-02T20:38:14.054Z,4.36
2023-04-02T20:40:42.183Z,4.35
2023-04-02T20:43:10.202Z,4.33
2023-04-02T20:45:38.125Z,4.30
2023-04-02T20:48:05.241Z,4.32
2023-04-02T20:50:32.613Z,4.32
2023-04-02T20:53:00.242Z,4.31
2023-04-02T20:55:27.069Z,4.28
2023-04-02T20:57:54.098Z,4.25
2023-04-02T21:00:21.183Z,4.23
2023-04-02T21:02:48.023Z,4.20
2023-04-02T21:05:14.980Z,4.19
2023-04-02T21:07:41.752Z,4.15
2023-04-02T21:10:09.311Z,4.12
2023-04-02T21:12:36.108Z,4.09
2023-04-02T21:15:03.226Z,4.08
2023-04-02T21:17:30.369Z,4.06
2023-04-02T21:19:57.235Z,4.06
2023-04-02T21:22:23.954Z,4.04
2023-04-02T21:24:50.818Z,4.03
2023-04-02T21:27:17.886Z,4.02
2023-04-02T21:29:44.619Z,4.01
2023-04-02T21:32:20.731Z,4.00
2023-04-02T21:34:48.385Z,3.98
2023-04-02T21:37:15.510Z,3.96
2023-04-02T21:39:42.401Z,3.96
2023-04-02T21:42:11.199Z,3.96
2023-04-02T21:44:37.983Z,3.92
2023-04-02T21:47:04.811Z,3.91
2023-04-02T21:49:31.617Z,3.90
2023-04-02T21:51:58.415Z,3.90
2023-04-02T21:54:25.328Z,3.90
2023-04-02T21:56:52.820Z,3.89
2023-04-02T21:59:19.718Z,3.86
2023-04-02T22:01:50.516Z,3.81
2023-04-02T22:04:20.730Z,3.79
2023-04-02T22:06:47.669Z,3.78
2023-04-02T22:09:18.411Z,3.77
2023-04-02T22:11:48.278Z,3.73
2023-04-02T22:14:15.784Z,3.72
2023-04-02T22:16:43.692Z,3.68
2023-04-02T22:19:13.722Z,3.66
2023-04-02T22:21:41.424Z,3.65
2023-04-02T22:24:12.576Z,3.63
2023-04-02T22:26:40.493Z,3.59
2023-04-02T22:29:08.042Z,3.55
2023-04-02T22:31:35.390Z,3.50
2023-04-02T22:34:04.600Z,3.47
2023-04-02T22:36:31.893Z,3.44
2023-04-02T22:39:00.139Z,3.44
2023-04-02T22:41:29.068Z,3.44
2023-04-02T22:43:57.216Z,3.41
2023-04-02T22:46:25.649Z,3.38
2023-04-02T22:48:53.421Z,3.39
2023-04-02T22:51:22.576Z,3.41
2023-04-02T22:53:50.215Z,3.42
2023-04-02T22:56:19.644Z,3.41
2023-04-02T22:58:46.462Z,3.41
2023-04-02T23:01:18.124Z,3.41
2023-04-02T23:03:45.145Z,3.40
2023-04-02T23:06:14.398Z,3.42
2023-04-02T23:08:41.315Z,3.42
2023-04-02T23:11:14.290Z,3.41
2023-04-02T23:13:42.130Z,3.40
2023-04-02T23:16:12.650Z,3.38
2023-04-02T23:18:42.332Z,3.37
2023-04-02T23:21:09.891Z,3.36
2023-04-02T23:23:37.434Z,3.34
2023-04-02T23:26:04.407Z,3.31
2023-04-02T23:28:31.233Z,3.27
2023-04-02T23:30:58.046Z,3.27
2023-04-02T23:33:24.847Z,3.25
2023-04-02T23:35:51.855Z,3.24
2023-04-02T23:38:18.592Z,3.22
2023-04-02T23:40:45.437Z,3.20
2023-04-02T23:43:12.205Z,3.19
2023-04-02T23:45:39.198Z,3.18
2023-04-02T23:48:06.245Z,3.18
2023-04-02T23:50:33.180Z,3.18
2023-04-02T23:53:00.274Z,3.15
2023-04-02T23:55:27.141Z,3.14
2023-04-02T23:57:53.936Z,3.15
